createdAt,value
2023-06-02T00:00:40.449Z,99498.25
2023-06-02T00:03:10.018Z,99499.97
2023-06-02T00:05:40.396Z,99497.34
2023-06-02T00:08:08.568Z,99500.06
2023-06-02T00:10:37.294Z,99493.22
2023-06-02T00:13:05.328Z,99493.09
2023-06-02T00:15:34.511Z,99487.00
2023-06-02T00:18:02.827Z,99484.56
2023-06-02T00:20:33.235Z,99481.00
2023-06-02T00:23:03.206Z,99468.06
2023-06-02T00:25:32.168Z,99483.06
2023-06-02T00:28:00.181Z,99485.72
2023-06-02T00:30:29.165Z,99466.13
2023-06-02T00:32:57.227Z,99467.13
2023-06-02T00:35:25.508Z,99473.34
2023-06-02T00:37:54.370Z,99472.56
2023-06-02T00:40:24.709Z,99476.66
2023-06-02T00:42:52.692Z,99470.56
2023-06-02T00:45:20.667Z,99467.38
2023-06-02T00:47:48.597Z,99474.22
2023-06-02T00:50:17.410Z,99476.16
2023-06-02T00:52:48.073Z,99480.16
2023-06-02T00:55:16.125Z,99463.97
2023-06-02T00:57:45.528Z,99474.66
2023-06-02T01:00:15.558Z,99476.16
2023-06-02T01:02:43.513Z,99475.22
2023-06-02T01:05:14.247Z,99477.50
2023-06-02T01:07:46.319Z,99474.31
2023-06-02T01:10:16.852Z,99472.09
2023-06-02T01:12:46.840Z,99469.44
2023-06-02T01:15:15.049Z,99472.09
2023-06-02T01:17:47.171Z,99478.44
2023-06-02T01:20:16.856Z,99473.13
2023-06-02T01:22:54.339Z,99471.16
2023-06-02T01:25:25.114Z,99469.31
2023-06-02T01:27:53.112Z,99470.84
2023-06-02T01:30:21.619Z,99461.25
2023-06-02T01:32:59.743Z,99470.31
2023-06-02T01:35:32.754Z,99468.38
2023-06-02T01:38:02.726Z,99470.06
2023-06-02T01:40:33.066Z,99469.56
2023-06-02T01:43:02.093Z,99466.47
2023-06-02T01:45:32.189Z,99476.72
2023-06-02T01:48:04.746Z,99478.78
2023-06-02T01:50:33.593Z,99468.19
2023-06-02T01:53:01.489Z,99468.34
2023-06-02T01:55:29.609Z,99473.88
2023-06-02T01:57:59.100Z,99476.97
2023-06-02T02:00:27.404Z,99469.19
2023-06-02T02:02:55.830Z,99471.53
2023-06-02T02:05:24.011Z,99479.31
2023-06-02T02:07:52.144Z,99471.88
2023-06-02T02:10:20.627Z,99472.34
2023-06-02T02:12:48.683Z,99469.91
2023-06-02T02:15:18.316Z,99465.63
2023-06-02T02:17:48.851Z,99469.28
2023-06-02T02:20:19.080Z,99467.44
2023-06-02T02:22:48.005Z,99472.72
2023-06-02T02:25:16.768Z,99469.44
2023-06-02T02:27:44.828Z,99465.63
2023-06-02T02:30:13.126Z,99469.63
2023-06-02T02:32:45.678Z,99447.69
2023-06-02T02:35:14.234Z,99469.16
2023-06-02T02:37:47.166Z,99451.19
2023-06-02T02:40:16.724Z,99465.63
2023-06-02T02:42:44.870Z,99456.06
2023-06-02T02:45:13.075Z,99460.69
2023-06-02T02:47:42.595Z,99458.25
2023-06-02T02:50:11.788Z,99465.69
2023-06-02T02:52:39.861Z,99460.75
2023-06-02T02:55:08.770Z,99454.31
2023-06-02T02:57:37.309Z,99459.13
2023-06-02T03:00:08.739Z,99465.25
2023-06-02T03:02:36.786Z,99458.16
2023-06-02T03:05:07.936Z,99459.31
2023-06-02T03:07:36.616Z,99460.31
2023-06-02T03:10:04.934Z,99458.66
2023-06-02T03:12:32.950Z,99457.34
2023-06-02T03:15:01.268Z,99454.69
2023-06-02T03:17:29.756Z,99460.97
2023-06-02T03:19:59.267Z,99466.91
2023-06-02T03:22:30.117Z,99460.78
2023-06-02T03:24:58.130Z,99450.91
2023-06-02T03:27:26.437Z,99470.22
2023-06-02T03:29:54.369Z,99469.53
2023-06-02T03:32:22.349Z,99468.09
2023-06-02T03:34:50.407Z,99476.66
2023-06-02T03:37:18.331Z,99464.44
2023-06-02T03:39:47.668Z,99473.38
2023-06-02T03:42:15.976Z,99467.59
2023-06-02T03:44:43.968Z,99467.25
2023-06-02T03:47:12.003Z,99472.19
2023-06-02T03:49:40.136Z,99466.56
2023-06-02T03:52:08.311Z,99471.81
2023-06-02T03:54:36.242Z,99455.03
2023-06-02T03:57:06.027Z,99468.38
2023-06-02T03:59:34.605Z,99471.44
2023-06-02T04:02:02.526Z,99464.88
2023-06-02T04:04:30.745Z,99468.81
2023-06-02T04:06:58.866Z,99448.88
2023-06-02T04:09:26.836Z,99469.97
2023-06-02T04:11:54.802Z,99470.91
2023-06-02T04:14:24.068Z,99414.50
2023-06-02T04:16:52.648Z,99454.19
2023-06-02T04:19:20.751Z,99466.50
2023-06-02T04:21:48.733Z,99469.94
2023-06-02T04:24:16.646Z,99460.03
2023-06-02T04:26:44.646Z,99421.00
2023-06-02T04:29:13.121Z,99467.31
2023-06-02T04:31:44.267Z,99462.34
2023-06-02T04:34:13.372Z,99458.69
2023-06-02T04:36:41.584Z,99475.09
2023-06-02T04:39:11.225Z,99473.56
2023-06-02T04:41:39.328Z,99475.63
2023-06-02T04:44:09.827Z,99464.41
2023-06-02T04:46:38.197Z,99473.59
2023-06-02T04:49:10.755Z,99473.72
2023-06-02T04:51:39.329Z,99474.69
2023-06-02T04:54:07.563Z,99479.16
2023-06-02T04:56:36.859Z,99482.25
2023-06-02T04:59:05.260Z,99474.66
2023-06-02T05:01:34.489Z,99487.00
2023-06-02T05:04:02.743Z,99483.84
2023-06-02T05:06:32.522Z,99482.97
2023-06-02T05:09:00.452Z,99485.34
2023-06-02T05:11:28.393Z,99485.59
2023-06-02T05:13:56.607Z,99479.72
2023-06-02T05:16:25.835Z,99491.38
2023-06-02T05:18:53.830Z,99493.72
2023-06-02T05:21:21.785Z,99490.06
2023-06-02T05:23:51.677Z,99500.09
2023-06-02T05:26:19.630Z,99500.81
2023-06-02T05:28:47.566Z,99499.59
2023-06-02T05:31:15.544Z,99502.63
2023-06-02T05:33:43.629Z,99495.13
2023-06-02T05:36:11.541Z,99495.13
2023-06-02T05:38:43.633Z,99500.59
2023-06-02T05:41:13.815Z,99494.09
2023-06-02T05:43:41.770Z,99488.03
2023-06-02T05:46:09.798Z,99488.09
2023-06-02T05:48:38.001Z,99493.28
2023-06-02T05:51:05.988Z,99497.56
2023-06-02T05:53:34.034Z,99508.44
2023-06-02T05:56:02.355Z,99512.31
2023-06-02T05:58:32.554Z,99514.88
2023-06-02T06:01:00.537Z,99522.78
2023-06-02T06:03:28.562Z,99520.41
2023-06-02T06:05:56.693Z,99511.38
2023-06-02T06:08:24.801Z,99515.53
2023-06-02T06:10:54.370Z,99520.47
2023-06-02T06:13:22.384Z,99504.06
2023-06-02T06:15:51.840Z,99513.38
2023-06-02T06:18:21.249Z,99517.94
2023-06-02T06:20:49.206Z,99516.88
2023-06-02T06:23:17.446Z,99520.19
2023-06-02T06:25:45.516Z,99516.97
2023-06-02T06:28:13.490Z,99517.06
2023-06-02T06:30:41.560Z,99521.03
2023-06-02T06:33:11.188Z,99513.69
2023-06-02T06:35:39.266Z,99493.78
2023-06-02T06:38:07.540Z,99504.88
2023-06-02T06:40:36.337Z,99509.19
2023-06-02T06:43:19.406Z,99508.16
2023-06-02T06:45:52.109Z,99479.09
2023-06-02T06:48:21.650Z,99493.47
2023-06-02T06:50:50.594Z,99492.06
2023-06-02T06:53:19.588Z,99491.22
2023-06-02T06:55:48.216Z,99481.00
2023-06-02T06:58:16.141Z,99474.47
2023-06-02T07:00:44.059Z,99485.09
2023-06-02T07:03:12.043Z,99478.53
2023-06-02T07:05:41.510Z,99481.41
2023-06-02T07:08:09.564Z,99482.09
2023-06-02T07:10:37.464Z,99484.94
2023-06-02T07:13:05.451Z,99485.16
2023-06-02T07:15:33.332Z,99479.59
2023-06-02T07:18:01.266Z,99493.31
2023-06-02T07:20:29.202Z,99485.75
2023-06-02T07:22:58.463Z,99493.69
2023-06-02T07:25:26.465Z,99483.44
2023-06-02T07:27:54.782Z,99476.50
2023-06-02T07:30:23.193Z,99484.88
2023-06-02T07:32:51.206Z,99479.72
2023-06-02T07:35:19.314Z,99479.53
2023-06-02T07:37:47.278Z,99480.75
2023-06-02T07:40:16.588Z,99479.28
2023-06-02T07:42:44.615Z,99481.28
2023-06-02T07:45:12.762Z,99479.91
2023-06-02T07:47:40.756Z,99482.91
2023-06-02T07:50:09.338Z,99477.81
2023-06-02T07:52:37.473Z,99475.47
2023-06-02T07:55:05.867Z,99474.38
2023-06-02T07:57:35.258Z,99474.75
2023-06-02T08:00:14.968Z,99473.06
2023-06-02T08:02:44.748Z,99473.53
2023-06-02T08:05:12.926Z,99475.53
2023-06-02T08:07:41.197Z,99473.22
2023-06-02T08:10:10.666Z,99472.28
2023-06-02T08:12:40.123Z,99466.66
2023-06-02T08:15:09.240Z,99456.81
2023-06-02T08:17:37.242Z,99457.53
2023-06-02T08:20:07.906Z,99459.53
2023-06-02T08:22:37.428Z,99455.66
2023-06-02T08:25:06.125Z,99450.06
2023-06-02T08:27:34.014Z,99451.53
2023-06-02T08:30:03.322Z,99448.09
2023-06-02T08:32:31.223Z,99449.84
2023-06-02T08:35:02.824Z,99448.28
2023-06-02T08:37:33.475Z,99450.91
2023-06-02T08:40:02.040Z,99439.00
2023-06-02T08:42:30.042Z,99455.72
2023-06-02T08:44:58.611Z,99443.75
2023-06-02T08:47:30.239Z,99444.16
2023-06-02T08:50:02.828Z,99445.16
2023-06-02T08:52:31.784Z,99435.94
2023-06-02T08:54:59.893Z,99434.63
2023-06-02T08:57:27.814Z,99425.06
2023-06-02T08:59:55.842Z,99430.72
2023-06-02T09:02:23.929Z,99421.44
2023-06-02T09:04:53.565Z,99400.13
2023-06-02T09:07:24.713Z,99410.41
2023-06-02T09:09:56.390Z,99403.41
2023-06-02T09:12:26.384Z,99402.28
2023-06-02T09:15:10.709Z,99387.41
2023-06-02T09:17:39.229Z,99402.63
2023-06-02T09:20:12.602Z,99406.84
2023-06-02T09:22:56.558Z,99397.84
2023-06-02T09:25:26.407Z,99400.09
2023-06-02T09:27:55.531Z,99397.53
2023-06-02T09:30:23.588Z,99407.78
2023-06-02T09:32:56.485Z,99385.44
2023-06-02T09:35:42.602Z,99399.53
2023-06-02T09:38:12.381Z,99396.63
2023-06-02T09:40:41.400Z,99380.38
2023-06-02T09:43:11.539Z,99395.38
2023-06-02T09:46:01.080Z,99384.41
2023-06-02T09:48:29.884Z,99393.31
2023-06-02T09:50:59.554Z,99381.59
2023-06-02T09:53:27.607Z,99386.47
2023-06-02T09:55:55.564Z,99376.31
2023-06-02T09:58:23.537Z,99371.00
2023-06-02T10:00:51.762Z,99366.56
2023-06-02T10:03:20.096Z,99363.63
2023-06-02T10:05:59.583Z,99367.69
2023-06-02T10:08:36.000Z,99356.72
2023-06-02T10:11:13.822Z,99365.25
2023-06-02T10:14:04.260Z,99356.59
2023-06-02T10:16:47.621Z,99361.44
2023-06-02T10:19:32.094Z,99357.00
2023-06-02T10:22:26.657Z,99341.63
2023-06-02T10:25:07.978Z,99347.69
2023-06-02T10:27:38.746Z,99333.66
2023-06-02T10:30:08.230Z,99344.41
2023-06-02T10:32:44.856Z,99344.50
2023-06-02T10:35:12.855Z,99347.38
2023-06-02T10:37:41.176Z,99335.50
2023-06-02T10:40:12.127Z,99339.72
2023-06-02T10:43:00.648Z,99335.25
2023-06-02T10:45:38.215Z,99337.47
2023-06-02T10:48:36.728Z,99336.31
2023-06-02T10:51:05.424Z,99329.91
2023-06-02T10:53:34.139Z,99323.19
2023-06-02T10:56:40.439Z,99326.41
2023-06-02T10:59:10.849Z,99327.25
2023-06-02T11:01:56.691Z,99322.56
2023-06-02T11:04:33.535Z,99302.88
2023-06-02T11:07:17.202Z,99315.38
2023-06-02T11:09:45.385Z,99311.84
2023-06-02T11:12:13.900Z,99314.56
2023-06-02T11:15:20.465Z,99313.28
2023-06-02T11:17:51.941Z,99311.31
2023-06-02T11:20:21.529Z,99314.53
2023-06-02T11:22:49.479Z,99294.13
2023-06-02T11:25:18.633Z,99310.25
2023-06-02T11:27:48.542Z,99297.53
2023-06-02T11:30:19.118Z,99293.56
2023-06-02T11:32:51.287Z,99288.88
2023-06-02T11:35:22.325Z,99290.16
2023-06-02T11:38:04.318Z,99292.22
2023-06-02T11:40:33.587Z,99287.91
2023-06-02T11:43:01.775Z,99292.13
2023-06-02T11:45:30.045Z,99286.09
2023-06-02T11:48:06.450Z,99284.81
2023-06-02T11:50:34.798Z,99266.84
2023-06-02T11:53:03.952Z,99289.91
2023-06-02T11:55:33.976Z,99279.66
2023-06-02T11:58:23.999Z,99283.06
2023-06-02T12:00:53.671Z,99281.88
2023-06-02T12:03:26.470Z,99286.06
2023-06-02T12:05:56.895Z,99274.56
2023-06-02T12:08:27.745Z,99267.97
2023-06-02T12:10:59.349Z,99273.88
2023-06-02T12:13:29.153Z,99259.72
2023-06-02T12:15:57.871Z,99270.13
2023-06-02T12:18:31.820Z,99260.28
2023-06-02T12:21:00.873Z,99255.34
2023-06-02T12:23:45.595Z,99253.38
2023-06-02T12:26:13.677Z,99250.31
2023-06-02T12:28:42.074Z,99248.84
2023-06-02T12:31:10.377Z,99249.91
2023-06-02T12:33:41.556Z,99246.25
2023-06-02T12:36:11.309Z,99243.56
2023-06-02T12:38:39.573Z,99240.97
2023-06-02T12:41:12.162Z,99244.56
2023-06-02T12:43:40.997Z,99237.19
2023-06-02T12:46:09.530Z,99232.88
2023-06-02T12:48:39.816Z,99230.88
2023-06-02T12:51:09.200Z,99229.78
2023-06-02T12:53:37.810Z,99226.47
2023-06-02T12:56:06.163Z,99222.31
2023-06-02T12:58:34.829Z,99217.25
2023-06-02T13:01:03.855Z,99225.09
2023-06-02T13:03:32.152Z,99217.19
2023-06-02T13:06:03.904Z,99217.34
2023-06-02T13:08:32.490Z,99218.44
2023-06-02T13:11:00.729Z,99211.38
2023-06-02T13:13:29.137Z,99206.19
2023-06-02T13:15:57.278Z,99198.53
2023-06-02T13:18:25.699Z,99197.88
2023-06-02T13:20:53.850Z,99193.06
2023-06-02T13:23:23.892Z,99191.06
2023-06-02T13:25:52.031Z,99198.78
2023-06-02T13:28:20.665Z,99182.53
2023-06-02T13:30:48.634Z,99188.94
2023-06-02T13:33:16.649Z,99192.34
2023-06-02T13:35:44.914Z,99186.97
2023-06-02T13:38:12.922Z,99178.72
2023-06-02T13:40:42.487Z,99182.53
2023-06-02T13:43:11.059Z,99158.63
2023-06-02T13:45:39.241Z,99175.25
2023-06-02T13:48:08.146Z,99176.31
2023-06-02T13:50:36.378Z,99167.78
2023-06-02T13:53:04.674Z,99171.72
2023-06-02T13:55:33.419Z,99163.56
2023-06-02T13:58:02.960Z,99155.13
2023-06-02T14:00:31.027Z,99161.28
2023-06-02T14:02:59.087Z,99160.31
2023-06-02T14:05:27.230Z,99155.28
2023-06-02T14:07:55.339Z,99157.97
2023-06-02T14:10:23.631Z,99163.19
2023-06-02T14:12:51.562Z,99154.72
2023-06-02T14:15:20.998Z,99149.97
2023-06-02T14:17:49.030Z,99156.66
2023-06-02T14:20:17.060Z,99143.72
2023-06-02T14:22:44.991Z,99163.41
2023-06-02T14:25:13.013Z,99159.31
2023-06-02T14:27:41.305Z,99169.69
2023-06-02T14:30:10.260Z,99168.94
2023-06-02T14:32:39.782Z,99161.00
2023-06-02T14:35:08.521Z,99153.44
2023-06-02T14:37:36.482Z,99168.38
2023-06-02T14:40:05.163Z,99158.75
2023-06-02T14:42:33.075Z,99160.00
2023-06-02T14:45:01.179Z,99155.53
2023-06-02T14:47:34.186Z,99154.66
2023-06-02T14:50:04.457Z,99144.13
2023-06-02T14:52:32.485Z,99158.75
2023-06-02T14:55:00.845Z,99154.06
2023-06-02T14:57:29.684Z,99150.41
2023-06-02T14:59:57.703Z,99149.91
2023-06-02T15:02:26.389Z,99144.97
2023-06-02T15:04:54.437Z,99147.88
2023-06-02T15:07:23.739Z,99144.97
2023-06-02T15:09:51.776Z,99141.97
2023-06-02T15:12:19.825Z,99146.06
2023-06-02T15:14:47.744Z,99141.25
2023-06-02T15:17:16.068Z,99142.31
2023-06-02T15:19:44.256Z,99150.09
2023-06-02T15:22:12.403Z,99144.97
2023-06-02T15:24:41.940Z,99135.50
2023-06-02T15:27:09.965Z,99135.81
2023-06-02T15:29:37.860Z,99141.81
2023-06-02T15:32:06.527Z,99139.81
2023-06-02T15:34:34.456Z,99131.97
2023-06-02T15:37:02.401Z,99136.06
2023-06-02T15:39:30.434Z,99141.44
2023-06-02T15:41:59.674Z,99139.78
2023-06-02T15:44:27.737Z,99144.44
2023-06-02T15:46:55.850Z,99151.59
2023-06-02T15:49:25.748Z,99140.28
2023-06-02T15:51:53.734Z,99153.28
2023-06-02T15:54:21.710Z,99157.63
2023-06-02T15:56:52.860Z,99164.50
2023-06-02T15:59:22.212Z,99156.03
2023-06-02T16:01:50.586Z,99159.72
2023-06-02T16:04:18.680Z,99154.38
2023-06-02T16:06:46.656Z,99155.09
2023-06-02T16:09:14.609Z,99152.53
2023-06-02T16:11:42.792Z,99149.50
2023-06-02T16:14:10.877Z,99141.78
2023-06-02T16:16:40.250Z,99137.00
2023-06-02T16:19:08.823Z,99147.13
2023-06-02T16:21:36.908Z,99145.63
2023-06-02T16:24:05.036Z,99146.31
2023-06-02T16:26:33.214Z,99152.34
2023-06-02T16:29:01.297Z,99151.09
2023-06-02T16:31:29.258Z,99156.41
2023-06-02T16:33:58.602Z,99141.75
2023-06-02T16:36:26.556Z,99151.06
2023-06-02T16:38:54.470Z,99157.25
2023-06-02T16:41:22.496Z,99154.69
2023-06-02T16:43:50.445Z,99156.31
2023-06-02T16:46:19.200Z,99157.56
2023-06-02T16:48:47.200Z,99151.06
2023-06-02T16:51:16.471Z,99156.06
2023-06-02T16:53:44.398Z,99158.59
2023-06-02T16:56:12.394Z,99164.09
2023-06-02T16:58:40.312Z,99162.09
2023-06-02T17:01:08.993Z,99176.41
2023-06-02T17:03:37.284Z,99173.00
2023-06-02T17:06:05.286Z,99177.97
2023-06-02T17:08:34.621Z,99174.03
2023-06-02T17:11:02.935Z,99179.50
2023-06-02T17:13:34.003Z,99178.69
2023-06-02T17:16:02.272Z,99175.50
2023-06-02T17:18:30.482Z,99169.41
2023-06-02T17:20:58.533Z,99180.56
2023-06-02T17:23:26.509Z,99179.16
2023-06-02T17:25:55.804Z,99184.13
2023-06-02T17:28:23.719Z,99192.16
2023-06-02T17:30:52.571Z,99193.22
2023-06-02T17:33:20.676Z,99199.69
2023-06-02T17:35:48.911Z,99194.94
2023-06-02T17:38:16.948Z,99201.00
2023-06-02T17:40:45.535Z,99202.81
2023-06-02T17:43:14.900Z,99200.06
2023-06-02T17:45:42.795Z,99205.13
2023-06-02T17:48:10.845Z,99212.91
2023-06-02T17:50:39.073Z,99210.94
2023-06-02T17:53:06.949Z,99215.41
2023-06-02T17:55:35.215Z,99214.59
2023-06-02T17:58:04.210Z,99210.34
2023-06-02T18:00:33.541Z,99217.16
2023-06-02T18:03:01.579Z,99222.50
2023-06-02T18:05:29.981Z,99216.47
2023-06-02T18:07:58.223Z,99231.06
2023-06-02T18:10:28.125Z,99235.22
2023-06-02T18:12:59.787Z,99241.19
2023-06-02T18:15:28.009Z,99241.25
2023-06-02T18:17:57.412Z,99237.59
2023-06-02T18:20:25.472Z,99243.16
2023-06-02T18:22:53.504Z,99250.13
2023-06-02T18:25:21.995Z,99244.63
2023-06-02T18:27:49.888Z,99254.84
2023-06-02T18:30:18.086Z,99246.66
2023-06-02T18:32:46.092Z,99249.16
2023-06-02T18:35:15.999Z,99247.88
2023-06-02T18:37:43.991Z,99261.81
2023-06-02T18:40:13.407Z,99253.44
2023-06-02T18:42:41.318Z,99264.50
2023-06-02T18:45:10.155Z,99265.94
2023-06-02T18:47:38.280Z,99258.13
2023-06-02T18:50:07.656Z,99268.78
2023-06-02T18:52:36.943Z,99264.34
2023-06-02T18:55:05.224Z,99271.13
2023-06-02T18:57:33.917Z,99265.84
2023-06-02T19:00:01.971Z,99267.91
2023-06-02T19:02:30.004Z,99271.44
2023-06-02T19:04:57.988Z,99270.25
2023-06-02T19:07:29.557Z,99272.53
2023-06-02T19:09:58.960Z,99270.22
2023-06-02T19:12:26.892Z,99269.63
2023-06-02T19:14:54.918Z,99269.03
2023-06-02T19:17:22.927Z,99259.69
2023-06-02T19:19:51.668Z,99273.59
2023-06-02T19:22:19.707Z,99273.22
2023-06-02T19:24:47.706Z,99275.47
2023-06-02T19:27:17.024Z,99272.41
2023-06-02T19:29:44.989Z,99276.34
2023-06-02T19:32:12.952Z,99278.00
2023-06-02T19:34:41.400Z,99278.41
2023-06-02T19:37:10.127Z,99272.50
2023-06-02T19:39:38.045Z,99276.97
2023-06-02T19:42:06.939Z,99290.31
2023-06-02T19:44:36.316Z,99287.03
2023-06-02T19:47:04.419Z,99236.53
2023-06-02T19:49:32.357Z,99276.63
2023-06-02T19:52:00.286Z,99276.63
2023-06-02T19:54:28.439Z,99181.72
2023-06-02T19:56:56.499Z,99274.00
2023-06-02T19:59:24.509Z,99277.31
2023-06-02T20:01:53.778Z,99285.34
2023-06-02T20:04:21.859Z,99285.13
2023-06-02T20:06:49.773Z,99286.78
2023-06-02T20:09:17.689Z,99285.28
2023-06-02T20:11:45.779Z,99268.75
2023-06-02T20:14:13.937Z,99269.59
2023-06-02T20:16:42.262Z,99254.03
2023-06-02T20:19:11.720Z,99293.22
2023-06-02T20:21:39.750Z,99289.91
2023-06-02T20:24:08.110Z,99289.03
2023-06-02T20:26:36.515Z,99285.81
2023-06-02T20:29:04.464Z,99281.94
2023-06-02T20:31:32.377Z,99287.69
2023-06-02T20:34:00.358Z,99285.22
2023-06-02T20:36:29.720Z,99281.31
2023-06-02T20:38:57.775Z,99283.97
2023-06-02T20:41:26.043Z,99287.47
2023-06-02T20:43:54.073Z,99278.88
2023-06-02T20:46:22.014Z,99282.78
2023-06-02T20:48:50.006Z,99279.91
2023-06-02T20:51:18.280Z,99271.72
2023-06-02T20:53:47.676Z,99271.50
2023-06-02T20:56:15.620Z,99262.06
2023-06-02T20:58:43.554Z,99265.75
2023-06-02T21:01:11.423Z,99266.59
2023-06-02T21:03:39.476Z,99272.50
2023-06-02T21:06:07.528Z,99263.50
2023-06-02T21:08:35.453Z,99269.84
2023-06-02T21:11:07.572Z,99275.13
2023-06-02T21:13:35.929Z,99266.88
2023-06-02T21:16:04.384Z,99273.78
2023-06-02T21:18:32.499Z,99275.94
2023-06-02T21:21:00.883Z,99279.03
2023-06-02T21:23:28.825Z,99259.16
2023-06-02T21:25:56.749Z,99268.00
2023-06-02T21:28:26.050Z,99271.53
2023-06-02T21:30:53.979Z,99268.88
2023-06-02T21:33:22.020Z,99273.03
2023-06-02T21:35:49.940Z,99273.53
2023-06-02T21:38:17.968Z,99278.00
2023-06-02T21:40:45.984Z,99288.59
2023-06-02T21:43:13.917Z,99284.13
2023-06-02T21:45:43.250Z,99273.66
2023-06-02T21:48:11.206Z,99284.56
2023-06-02T21:50:39.163Z,99285.59
2023-06-02T21:53:07.081Z,99276.75
2023-06-02T21:55:35.087Z,99264.25
2023-06-02T21:58:02.980Z,99271.59
2023-06-02T22:00:30.897Z,99281.88
2023-06-02T22:03:00.290Z,99283.78
2023-06-02T22:05:28.286Z,99275.50
2023-06-02T22:07:56.298Z,99301.53
2023-06-02T22:10:24.259Z,99290.19
2023-06-02T22:12:53.162Z,99288.00
2023-06-02T22:15:21.394Z,99298.25
2023-06-02T22:17:49.411Z,99287.38
2023-06-02T22:20:18.845Z,99299.88
2023-06-02T22:22:46.812Z,99285.97
2023-06-02T22:25:14.815Z,99293.94
2023-06-02T22:27:42.740Z,99276.00
2023-06-02T22:30:11.805Z,99276.78
2023-06-02T22:32:39.837Z,99255.03
2023-06-02T22:35:08.348Z,99271.31
2023-06-02T22:37:37.670Z,99263.63
2023-06-02T22:40:06.358Z,99257.09
2023-06-02T22:42:34.339Z,99261.84
2023-06-02T22:45:02.431Z,99258.13
2023-06-02T22:47:30.679Z,99254.44
2023-06-02T22:49:58.656Z,99252.41
2023-06-02T22:52:26.568Z,99258.91
2023-06-02T22:54:56.224Z,99251.09
2023-06-02T22:57:26.107Z,99258.81
2023-06-02T22:59:54.327Z,99260.47
2023-06-02T23:02:22.352Z,99257.59
2023-06-02T23:04:50.441Z,99248.59
2023-06-02T23:07:18.382Z,99251.50
2023-06-02T23:09:46.264Z,99255.19
2023-06-02T23:12:16.067Z,99248.00
2023-06-02T23:14:44.001Z,99253.69
2023-06-02T23:17:11.924Z,99256.94
2023-06-02T23:19:39.865Z,99255.78
2023-06-02T23:22:08.051Z,99257.63
2023-06-02T23:24:35.978Z,99256.09
2023-06-02T23:27:04.051Z,99261.22
2023-06-02T23:29:33.334Z,99257.31
2023-06-02T23:32:01.415Z,99238.66
2023-06-02T23:34:29.350Z,99249.78
2023-06-02T23:36:57.246Z,99243.84
2023-06-02T23:39:25.221Z,99246.88
2023-06-02T23:41:53.180Z,99243.34
2023-06-02T23:44:21.114Z,99239.88
2023-06-02T23:46:50.473Z,99241.31
2023-06-02T23:49:18.506Z,99236.22
2023-06-02T23:51:46.457Z,99245.28
2023-06-02T23:54:14.443Z,99241.63
2023-06-02T23:56:42.520Z,99240.19
2023-06-02T23:59:10.482Z,99238.03
